Time;durP1;ratioP1;P1;durP2;ratioP2;P2;SDS_P1;SDS_P2;PMS_P1;PMS_P2;Temp;Humidity;BMP_temperature;BMP_pressure;BME280_temperature;BME280_humidity;BME280_pressure;Samples;Min_cycle;Max_cycle;Signal;HPM_P1;HPM_P2
2023/02/05 00:00:22;;;;;;;0.40;0.40;;;;;;;-0.55;64.90;101134.06;5094612;28;20296;-69
2023/02/05 00:02:51;;;;;;;1.20;1.15;;;;;;;-0.53;64.53;101132.50;5094358;28;20050;-69
2023/02/05 00:05:22;;;;;;;0.43;0.43;;;;;;;-0.57;64.74;101128.91;5094866;28;20044;-69
2023/02/05 00:07:51;;;;;;;0.70;0.70;;;;;;;-0.60;64.76;101133.72;5093368;28;20101;-70
2023/02/05 00:10:19;;;;;;;0.50;0.50;;;;;;;-0.60;64.59;101131.22;5093449;28;20397;-69
2023/02/05 00:12:48;;;;;;;0.82;0.82;;;;;;;-0.67;64.87;101132.44;5094395;28;20126;-71
2023/02/05 00:15:17;;;;;;;0.30;0.30;;;;;;;-0.64;64.90;101126.78;5094402;28;20081;-70
2023/02/05 00:17:46;;;;;;;0.40;0.40;;;;;;;-0.68;64.85;101124.84;5093724;28;20082;-70
2023/02/05 00:20:15;;;;;;;0.50;0.50;;;;;;;-0.72;64.60;101122.91;5094553;28;20043;-69
2023/02/05 00:22:45;;;;;;;0.50;0.50;;;;;;;-0.73;64.62;101136.19;5094182;28;20036;-70
2023/02/05 00:25:14;;;;;;;0.40;0.40;;;;;;;-0.72;64.29;101137.94;5094772;28;20097;-69
2023/02/05 00:27:42;;;;;;;0.60;0.60;;;;;;;-0.75;64.27;101142.75;5094483;28;20060;-69
2023/02/05 00:30:12;;;;;;;0.50;0.50;;;;;;;-0.73;64.01;101151.22;5092822;28;20064;-69
2023/02/05 00:32:41;;;;;;;0.50;0.50;;;;;;;-0.74;64.07;101159.50;5095008;28;20040;-70
2023/02/05 00:35:10;;;;;;;0.50;0.50;;;;;;;-0.77;63.90;101160.16;5094294;28;20067;-70
2023/02/05 00:37:39;;;;;;;0.50;0.50;;;;;;;-0.80;63.64;101169.13;5094285;28;20284;-69
2023/02/05 00:40:10;;;;;;;0.50;0.50;;;;;;;-0.83;63.77;101169.78;5127090;27;20078;-69
2023/02/05 00:42:39;;;;;;;1.10;1.10;;;;;;;-0.81;63.83;101178.28;5093871;28;20293;-70
2023/02/05 00:45:09;;;;;;;0.50;0.50;;;;;;;-0.78;63.42;101183.50;5094182;28;20044;-70
2023/02/05 00:47:38;;;;;;;1.75;0.77;;;;;;;-0.77;63.22;101184.38;5126964;27;20078;-69
2023/02/05 00:50:07;;;;;;;0.70;0.70;;;;;;;-0.82;62.83;101198.22;5092621;28;20040;-69
2023/02/05 00:52:36;;;;;;;0.50;0.50;;;;;;;-0.81;62.62;101199.94;5092906;28;20040;-70
2023/02/05 00:55:05;;;;;;;0.50;0.50;;;;;;;-0.82;62.39;101195.72;5109748;28;20052;-69
2023/02/05 00:57:35;;;;;;;;;;;;;;;-0.86;62.71;101197.13;5126973;27;20037;-69
2023/02/05 01:00:05;;;;;;;0.60;0.60;;;;;;;-0.83;62.95;101199.84;5127051;27;20316;-69
2023/02/05 01:02:34;;;;;;;0.50;0.50;;;;;;;-0.83;63.12;101202.38;5093480;28;20094;-70
2023/02/05 01:05:04;;;;;;;0.70;0.70;;;;;;;-0.84;63.06;101197.25;5093923;28;20050;-69
2023/02/05 01:07:33;;;;;;;0.40;0.40;;;;;;;-0.87;63.08;101202.06;5093653;28;20044;-69
2023/02/05 01:10:02;;;;;;;0.50;0.50;;;;;;;-0.90;63.30;101196.81;5093912;28;20040;-69
2023/02/05 01:12:32;;;;;;;0.47;0.47;;;;;;;-0.93;63.46;101204.13;5093480;28;20051;-69
2023/02/05 01:15:03;;;;;;;0.50;0.50;;;;;;;-0.94;63.49;101199.88;5092417;28;20044;-69
2023/02/05 01:17:32;;;;;;;0.60;0.60;;;;;;;-0.93;63.58;101211.63;5092360;28;20055;-69
2023/02/05 01:20:01;;;;;;;0.68;0.68;;;;;;;-0.92;63.78;101205.88;5093514;28;20040;-69
2023/02/05 01:22:30;;;;;;;1.42;1.35;;;;;;;-0.94;63.70;101209.91;5109127;28;20032;-69
2023/02/05 01:24:59;;;;;;;0.60;0.60;;;;;;;-0.90;63.78;101216.88;5093442;28;20032;-69
2023/02/05 01:27:27;;;;;;;0.32;0.32;;;;;;;-0.88;63.73;101207.81;5094489;28;20069;-69
2023/02/05 01:29:56;;;;;;;0.47;0.47;;;;;;;-0.88;64.04;101210.31;5096627;28;20119;-70
2023/02/05 01:32:28;;;;;;;1.23;1.13;;;;;;;-0.89;63.94;101209.44;5097459;28;20067;-69
2023/02/05 01:34:57;;;;;;;0.55;0.55;;;;;;;-0.88;64.10;101210.31;5097541;28;20048;-70
2023/02/05 01:37:26;;;;;;;0.50;0.50;;;;;;;-0.87;64.10;101212.06;5097763;28;20489;-69
2023/02/05 01:39:55;;;;;;;2.50;1.70;;;;;;;-0.84;64.15;101208.13;5097974;28;20075;-69
2023/02/05 01:42:26;;;;;;;0.50;0.50;;;;;;;-0.88;64.50;101216.22;5097494;28;20489;-69
2023/02/05 01:45:16;;;;;;;0.50;0.50;;;;;;;-0.89;64.42;101211.09;5097862;28;20374;-69
2023/02/05 01:47:46;;;;;;;0.40;0.40;;;;;;;-0.94;64.49;101209.91;5097277;28;20460;-69
2023/02/05 01:50:15;;;;;;;0.40;0.40;;;;;;;-0.93;64.87;101204.13;5096038;28;20048;-69
2023/02/05 01:52:45;;;;;;;0.50;0.50;;;;;;;-0.98;64.96;101198.78;5097343;28;20131;-69
2023/02/05 01:55:15;;;;;;;0.45;0.45;;;;;;;-0.98;65.19;101208.81;5096172;28;20036;-69
2023/02/05 01:57:44;;;;;;;;;;;;;;;-0.98;65.26;101215.44;5096333;28;20071;-70
2023/02/05 02:00:13;;;;;;;0.50;0.50;;;;;;;-1.00;65.45;101214.47;5112794;28;19958;-69
2023/02/05 02:02:42;;;;;;;;;;;;;;;-1.01;66.12;101217.78;5097116;28;20105;-70
2023/02/05 02:05:14;;;;;;;0.57;0.57;;;;;;;-1.03;66.61;101229.31;5096866;28;19947;-69
2023/02/05 02:07:45;;;;;;;1.40;1.30;;;;;;;-1.06;67.33;101224.09;5096862;28;20051;-69
2023/02/05 02:10:17;;;;;;;2.17;2.05;;;;;;;-1.05;67.55;101221.69;5096820;28;20067;-69
2023/02/05 02:12:48;;;;;;;0.60;0.60;;;;;;;-1.03;68.28;101224.31;5096634;28;20072;-70
2023/02/05 02:15:23;;;;;;;0.47;0.47;;;;;;;-1.00;68.95;101229.50;5096700;28;20052;-70
2023/02/05 02:18:24;;;;;;;0.50;0.50;;;;;;;-1.00;69.10;101234.53;5096713;28;20070;-70
2023/02/05 02:20:53;;;;;;;0.60;0.60;;;;;;;-1.00;69.83;101234.53;5095580;28;20440;-69
2023/02/05 02:23:28;;;;;;;0.50;0.50;;;;;;;-1.01;69.95;101237.81;5095258;28;20052;-70
2023/02/05 02:26:25;;;;;;;0.60;0.60;;;;;;;-1.04;70.50;101237.59;5096847;28;20076;-69
2023/02/05 02:29:00;;;;;;;0.40;0.40;;;;;;;-1.04;71.08;101232.56;5096814;28;20139;-70
2023/02/05 02:31:35;;;;;;;0.50;0.50;;;;;;;-1.08;71.41;101236.50;5095580;28;20048;-70
2023/02/05 02:34:14;;;;;;;0.57;0.57;;;;;;;-1.14;71.61;101230.19;5096653;28;20229;-70
2023/02/05 02:36:50;;;;;;;0.40;0.40;;;;;;;-1.14;71.88;101236.06;5095528;28;20158;-69
2023/02/05 02:39:27;;;;;;;0.50;0.50;;;;;;;-1.16;72.21;101231.72;5095575;28;20051;-70
2023/02/05 02:42:02;;;;;;;0.60;0.60;;;;;;;-1.14;71.93;101245.22;5096148;28;20040;-69
2023/02/05 02:44:36;;;;;;;0.40;0.40;;;;;;;-1.16;72.36;101242.63;5094964;28;20051;-70
2023/02/05 02:47:12;;;;;;;0.52;0.52;;;;;;;-1.13;72.26;101231.94;5095176;28;20109;-69
2023/02/05 02:49:47;;;;;;;0.50;0.50;;;;;;;-1.21;72.39;101238.91;5095701;28;20041;-69
2023/02/05 02:52:20;;;;;;;0.52;0.52;;;;;;;-1.22;72.30;101236.31;5096027;28;20490;-70
2023/02/05 02:54:52;;;;;;;0.85;0.85;;;;;;;-1.28;72.35;101230.84;5096452;28;20067;-69
2023/02/05 02:57:28;;;;;;;0.40;0.40;;;;;;;-1.26;72.11;101234.31;5095928;28;20074;-69
2023/02/05 03:00:02;;;;;;;0.40;0.40;;;;;;;-1.27;72.13;101242.63;5095849;28;20123;-70
2023/02/05 03:02:36;;;;;;;1.60;1.50;;;;;;;-1.30;72.19;101249.91;5094498;28;20401;-70
2023/02/05 03:05:09;;;;;;;0.90;0.90;;;;;;;-1.32;72.33;101248.94;5096028;28;20059;-69
2023/02/05 03:07:43;;;;;;;0.50;0.50;;;;;;;-1.32;72.42;101253.94;5095743;28;20048;-69
2023/02/05 03:10:19;;;;;;;0.40;0.40;;;;;;;-1.37;72.35;101254.47;5095986;28;20044;-70
2023/02/05 03:12:48;;;;;;;0.88;0.88;;;;;;;-1.32;72.23;101264.84;5095617;28;20047;-69
2023/02/05 03:15:19;;;;;;;0.70;0.70;;;;;;;-1.30;72.23;101262.44;5095533;28;20486;-70
2023/02/05 03:17:50;;;;;;;0.57;0.57;;;;;;;-1.26;72.14;101260.25;5094352;28;20058;-69
2023/02/05 03:20:25;;;;;;;0.43;0.43;;;;;;;-1.21;72.07;101258.94;5128375;27;20051;-70
2023/02/05 03:22:57;;;;;;;0.40;0.40;;;;;;;-1.19;71.95;101264.06;5094713;28;20044;-69
2023/02/05 03:25:29;;;;;;;0.40;0.40;;;;;;;-1.12;71.81;101263.72;5095636;28;20497;-69
2023/02/05 03:27:59;;;;;;;0.40;0.40;;;;;;;-1.11;71.56;101262.97;5095665;28;20562;-69
2023/02/05 03:30:45;;;;;;;0.40;0.40;;;;;;;-1.07;71.70;101268.31;5096148;28;20044;-69
2023/02/05 03:33:31;;;;;;;1.40;1.10;;;;;;;-1.07;71.64;101265.78;5095255;28;20110;-69
2023/02/05 03:36:11;;;;;;;0.60;0.60;;;;;;;-1.00;71.39;101270.47;5095181;28;20056;-69
2023/02/05 03:38:52;;;;;;;0.50;0.50;;;;;;;-1.00;71.11;101269.59;5095149;28;20040;-69
2023/02/05 03:44:28;;;;;;;1.55;1.48;;;;;;;-0.92;71.05;101263.50;5094917;28;20118;-70
2023/02/05 03:47:06;;;;;;;0.60;0.60;;;;;;;-0.91;70.89;101258.59;5094888;28;20075;-69
2023/02/05 03:49:51;;;;;;;0.50;0.50;;;;;;;-0.89;70.53;101259.56;5094000;28;20552;-69
2023/02/05 03:52:27;;;;;;;0.40;0.40;;;;;;;-0.90;70.38;101266.97;5109637;28;20071;-70
2023/02/05 03:55:05;;;;;;;0.40;0.40;;;;;;;-0.94;70.25;101265.03;5093623;28;20048;-69
2023/02/05 03:57:43;;;;;;;0.57;0.57;;;;;;;-0.94;70.25;101270.91;5127688;27;20075;-69
2023/02/05 04:00:14;;;;;;;0.30;0.30;;;;;;;-0.94;70.17;101267.53;5093454;28;20058;-69
2023/02/05 04:02:47;;;;;;;0.70;0.70;;;;;;;-0.97;70.16;101260.69;5094731;28;20512;-69
2023/02/05 04:05:21;;;;;;;0.70;0.70;;;;;;;-0.94;70.09;101270.91;5094637;28;20094;-69
2023/02/05 04:07:53;;;;;;;0.30;0.30;;;;;;;-0.98;70.21;101268.94;5094764;28;20135;-69
2023/02/05 04:10:26;;;;;;;0.95;0.95;;;;;;;-1.00;70.40;101264.59;5094752;28;20509;-69
2023/02/05 04:12:57;;;;;;;0.50;0.50;;;;;;;-1.05;70.89;101275.91;5094921;28;20163;-69
2023/02/05 04:15:27;;;;;;;0.57;0.57;;;;;;;-1.08;71.23;101273.22;5093218;28;20047;-69
2023/02/05 04:18:00;;;;;;;0.50;0.50;;;;;;;-1.04;71.26;101272.66;5094665;28;20051;-69
2023/02/05 04:20:30;;;;;;;0.40;0.40;;;;;;;-1.03;71.78;101274.41;5094346;28;20139;-70
2023/02/05 04:23:00;;;;;;;0.40;0.40;;;;;;;-0.98;71.56;101278.09;5094807;28;20078;-69
2023/02/05 04:25:31;;;;;;;0.90;0.90;;;;;;;-0.92;71.55;101278.53;5076645;28;20147;-69
2023/02/05 04:28:01;;;;;;;;;;;;;;;-0.87;71.48;101287.25;5094522;28;20055;-70
2023/02/05 04:30:31;;;;;;;0.40;0.40;;;;;;;-0.87;71.04;101292.25;5094207;28;20387;-69
2023/02/05 04:33:02;;;;;;;0.73;0.73;;;;;;;-0.94;70.80;101290.09;5093508;28;20393;-69
2023/02/05 04:35:31;;;;;;;0.40;0.40;;;;;;;-1.00;70.47;101295.53;5094088;28;20059;-69
2023/02/05 04:38:01;;;;;;;0.50;0.50;;;;;;;-1.02;70.51;101286.16;5092730;28;20048;-70
2023/02/05 04:40:29;;;;;;;0.40;0.40;;;;;;;-1.08;70.46;101290.75;5094296;28;20063;-69
2023/02/05 04:42:58;;;;;;;0.45;0.45;;;;;;;-1.14;70.79;101295.31;5093873;28;20044;-69
2023/02/05 04:45:29;;;;;;;0.40;0.40;;;;;;;-1.20;71.07;101294.88;5093919;28;20123;-69
2023/02/05 04:47:59;;;;;;;0.50;0.50;;;;;;;-1.26;71.86;101304.44;5094253;28;20130;-69
2023/02/05 04:50:29;;;;;;;0.50;0.50;;;;;;;-1.24;72.61;101308.81;5109570;28;20136;-69
2023/02/05 04:53:00;;;;;;;0.50;0.50;;;;;;;-1.28;72.99;101316.00;5094186;28;20135;-70
2023/02/05 04:55:31;;;;;;;0.85;0.70;;;;;;;-1.34;73.76;101318.06;5093797;28;20051;-69
2023/02/05 04:58:01;;;;;;;0.50;0.50;;;;;;;-1.40;74.38;101326.00;5093791;28;20083;-69
2023/02/05 05:00:30;;;;;;;0.50;0.50;;;;;;;-1.42;75.50;101315.84;5093936;28;20448;-70
2023/02/05 05:02:59;;;;;;;0.50;0.50;;;;;;;-1.42;75.50;101323.38;5093320;28;20113;-69
2023/02/05 05:05:30;;;;;;;0.40;0.40;;;;;;;-1.44;76.23;101324.03;5093670;28;20276;-70
2023/02/05 05:08:00;;;;;;;0.50;0.50;;;;;;;-1.46;76.71;101310.50;5093936;28;20048;-70
2023/02/05 05:10:29;;;;;;;0.40;0.40;;;;;;;-1.42;77.49;101308.34;5093578;28;20062;-69
2023/02/05 05:12:58;;;;;;;3.50;1.60;;;;;;;-1.38;77.55;101309.44;5093911;28;20110;-69
2023/02/05 05:15:26;;;;;;;0.60;0.60;;;;;;;-1.30;78.21;101312.50;5093562;28;20043;-69
2023/02/05 05:17:55;;;;;;;0.60;0.60;;;;;;;-1.29;78.19;101320.13;5093936;28;20044;-69
2023/02/05 05:20:24;;;;;;;1.00;1.00;;;;;;;-1.31;78.31;101325.78;5093998;28;20491;-70
2023/02/05 05:22:54;;;;;;;2.28;1.30;;;;;;;-1.31;78.73;101320.78;5093540;28;20119;-70
2023/02/05 05:25:23;;;;;;;0.50;0.50;;;;;;;-1.31;78.61;101315.75;5093460;28;20044;-69
2023/02/05 05:27:52;;;;;;;0.50;0.50;;;;;;;-1.29;79.12;101330.13;5093734;28;20036;-70
2023/02/05 05:30:21;;;;;;;2.55;2.42;;;;;;;-1.28;79.05;101331.03;5093572;28;20036;-69
2023/02/05 05:32:49;;;;;;;1.42;1.35;;;;;;;-1.39;79.26;101318.59;5093713;28;20448;-69
2023/02/05 05:35:18;;;;;;;0.50;0.50;;;;;;;-1.28;78.98;101339.41;5093344;28;20093;-70
2023/02/05 05:37:47;;;;;;;0.70;0.70;;;;;;;-1.30;79.19;101342.56;5093420;28;20036;-69
2023/02/05 05:45:35;;;;;;;0.70;0.70;;;;;;;-1.37;79.51;101351.28;5093326;28;20078;-69
2023/02/05 05:48:04;;;;;;;0.70;0.70;;;;;;;-1.37;79.69;101361.28;5093283;28;20046;-70
2023/02/05 05:50:33;;;;;;;;;;;;;;;-1.36;79.71;101363.88;5093603;28;20067;-69
2023/02/05 05:53:02;;;;;;;0.50;0.50;;;;;;;-1.27;79.72;101377.84;5126111;28;20374;-69
2023/02/05 05:55:32;;;;;;;0.40;0.40;;;;;;;-1.25;80.15;101383.84;5093176;28;20047;-70
2023/02/05 05:58:01;;;;;;;1.02;0.80;;;;;;;-1.29;80.09;101379.34;5093724;28;20273;-69
2023/02/05 06:00:30;;;;;;;10.63;4.33;;;;;;;-1.43;80.15;101379.22;5093159;28;20036;-69
2023/02/05 06:02:59;;;;;;;0.53;0.53;;;;;;;-1.44;79.97;101382.47;5092796;28;20046;-69
2023/02/05 06:05:27;;;;;;;0.70;0.70;;;;;;;-1.38;80.27;101380.44;5092906;28;20292;-69
2023/02/05 06:07:56;;;;;;;0.67;0.67;;;;;;;-1.34;80.29;101390.69;5093137;28;20040;-69
2023/02/05 06:10:25;;;;;;;0.80;0.80;;;;;;;-1.44;80.01;101387.47;5093308;28;20113;-69
2023/02/05 06:12:56;;;;;;;0.82;0.80;;;;;;;-1.48;80.32;101388.03;5093056;28;20047;-69
2023/02/05 06:15:26;;;;;;;0.80;0.80;;;;;;;-1.49;80.46;101383.75;5095409;28;20063;-69
2023/02/05 06:17:54;;;;;;;0.43;0.43;;;;;;;-1.41;80.37;101394.34;5096970;28;20048;-69
2023/02/05 06:20:23;;;;;;;1.25;1.15;;;;;;;-1.42;79.99;101398.47;5097110;28;20477;-69
2023/02/05 06:22:52;;;;;;;0.40;0.40;;;;;;;-1.40;80.34;101399.47;5096829;28;20375;-69
2023/02/05 06:25:21;;;;;;;0.53;0.53;;;;;;;-1.35;80.53;101384.78;5096707;28;20299;-69
2023/02/05 06:27:50;;;;;;;0.45;0.45;;;;;;;-1.31;80.21;101385.88;5096433;28;20119;-70
2023/02/05 06:30:20;;;;;;;0.50;0.50;;;;;;;-1.30;80.25;101382.63;5096721;28;20113;-70
2023/02/05 06:32:49;;;;;;;0.47;0.47;;;;;;;-1.32;80.24;101391.66;5096840;28;20319;-69
2023/02/05 06:35:18;;;;;;;3.42;1.90;;;;;;;-1.31;79.94;101385.88;5096590;28;20167;-69
2023/02/05 06:37:47;;;;;;;0.60;0.60;;;;;;;-1.28;79.48;101386.09;5096224;28;20066;-69
2023/02/05 06:40:21;;;;;;;0.50;0.50;;;;;;;-1.21;79.66;101386.69;5095253;28;20417;-69
2023/02/05 06:42:50;;;;;;;0.60;0.60;;;;;;;-1.07;79.09;101392.69;5096517;28;20040;-69
2023/02/05 06:45:20;;;;;;;0.50;0.50;;;;;;;-1.00;78.74;101405.75;5096474;28;20071;-69
2023/02/05 06:47:51;;;;;;;1.75;1.65;;;;;;;-1.04;77.86;101382.88;5096181;28;20463;-69
2023/02/05 06:50:20;;;;;;;0.65;0.65;;;;;;;-0.98;77.66;101398.34;5096278;28;20490;-69
2023/02/05 06:52:50;;;;;;;0.77;0.77;;;;;;;-1.00;77.24;101399.88;5096564;28;20059;-69
2023/02/05 06:55:19;;;;;;;0.90;0.90;;;;;;;-0.98;76.67;101404.22;5095805;28;20135;-69
2023/02/05 06:57:47;;;;;;;0.75;0.75;;;;;;;-0.89;76.02;101406.56;5096004;28;20048;-69
2023/02/05 07:00:17;;;;;;;0.68;0.68;;;;;;;-0.63;76.10;101408.41;5096143;28;20044;-69
2023/02/05 07:02:47;;;;;;;0.60;0.60;;;;;;;-0.43;75.60;101404.03;5095700;28;20455;-69
2023/02/05 07:05:16;;;;;;;0.50;0.50;;;;;;;-0.32;75.28;101403.16;5095716;28;20058;-69
2023/02/05 07:07:45;;;;;;;0.65;0.65;;;;;;;-0.26;75.06;101403.56;5095758;28;20044;-68
2023/02/05 07:10:17;;;;;;;1.83;1.73;;;;;;;-0.18;74.44;101401.59;5095738;28;20127;-68
2023/02/05 07:12:46;;;;;;;5.47;1.83;;;;;;;-0.07;74.01;101401.56;5095813;28;20036;-68
2023/02/05 07:15:15;;;;;;;0.60;0.60;;;;;;;-0.01;73.76;101409.53;5095571;28;20138;-68
2023/02/05 07:17:44;;;;;;;3.42;2.08;;;;;;;0.06;73.63;101412.44;5095759;28;20451;-68
2023/02/05 07:20:15;;;;;;;0.77;0.77;;;;;;;0.12;72.81;101413.72;5096076;28;20461;-67
2023/02/05 07:22:45;;;;;;;1.10;0.90;;;;;;;0.24;72.83;101413.72;5095356;28;20558;-67
2023/02/05 07:25:16;;;;;;;0.30;0.30;;;;;;;0.26;72.48;101418.06;5095733;28;20109;-67
2023/02/05 07:27:44;;;;;;;0.70;0.70;;;;;;;0.41;72.50;101414.06;5095612;28;20036;-67
2023/02/05 07:30:14;;;;;;;0.35;0.35;;;;;;;0.60;71.98;101411.16;5095546;28;20032;-67
2023/02/05 07:32:43;;;;;;;0.93;0.88;;;;;;;0.73;71.86;101406.16;5095553;28;20072;-68
2023/02/05 07:35:12;;;;;;;0.88;0.88;;;;;;;0.84;71.37;101416.94;5095089;28;20047;-67
2023/02/05 07:37:42;;;;;;;1.35;1.10;;;;;;;0.82;70.62;101418.44;5095085;28;20090;-67
2023/02/05 07:40:12;;;;;;;0.47;0.47;;;;;;;0.85;70.29;101419.53;5095437;28;20397;-66
2023/02/05 07:42:40;;;;;;;0.40;0.40;;;;;;;0.95;69.67;101415.97;5094930;28;20512;-66
2023/02/05 07:45:10;;;;;;;0.50;0.50;;;;;;;1.01;69.70;101421.41;5093718;28;20498;-66
2023/02/05 07:47:39;;;;;;;0.60;0.60;;;;;;;1.18;69.80;101421.72;5094910;28;20052;-66
2023/02/05 07:50:08;;;;;;;0.60;0.60;;;;;;;1.30;69.13;101422.50;5094865;28;20054;-66
2023/02/05 07:52:37;;;;;;;15.15;1.52;;;;;;;1.28;68.78;101419.03;5094809;28;20308;-66
2023/02/05 07:55:08;;;;;;;1.15;1.05;;;;;;;1.21;68.17;101416.91;5094865;28;20036;-66
2023/02/05 07:57:37;;;;;;;0.60;0.60;;;;;;;1.27;68.21;101411.41;5095034;28;20119;-66
2023/02/05 08:00:08;;;;;;;0.40;0.40;;;;;;;1.38;68.01;101414.56;5094748;28;20073;-65
2023/02/05 08:02:40;;;;;;;0.30;0.30;;;;;;;1.34;67.63;101405.97;5094603;28;20143;-66
2023/02/05 08:05:09;;;;;;;0.40;0.40;;;;;;;1.47;67.04;101400.06;5094818;28;20067;-66
2023/02/05 08:07:38;;;;;;;1.48;0.75;;;;;;;1.51;66.61;101412.06;5094886;28;20440;-67
2023/02/05 08:10:13;;;;;;;0.30;0.30;;;;;;;1.55;66.85;101414.00;5094893;28;20502;-66
2023/02/05 08:12:42;;;;;;;0.95;0.82;;;;;;;1.56;65.92;101413.25;5093804;28;20076;-67
2023/02/05 08:15:11;;;;;;;1.17;1.10;;;;;;;1.48;66.05;101411.88;5094282;28;20036;-70
2023/02/05 08:17:40;;;;;;;0.82;0.82;;;;;;;1.41;65.58;101419.81;5094415;28;20079;-69
2023/02/05 08:20:09;;;;;;;0.40;0.40;;;;;;;1.35;65.56;101423.66;5093773;28;20119;-69
2023/02/05 08:22:40;;;;;;;0.57;0.57;;;;;;;1.32;65.81;101425.97;5092057;28;20036;-68
2023/02/05 08:25:13;;;;;;;1.25;1.20;;;;;;;1.31;66.02;101424.25;5094260;28;20044;-71
2023/02/05 08:27:43;;;;;;;0.57;0.57;;;;;;;1.35;66.00;101426.19;5094769;28;20437;-71
2023/02/05 08:30:14;;;;;;;0.73;0.73;;;;;;;1.53;66.27;101423.09;5094419;28;20056;-69
2023/02/05 08:32:46;;;;;;;0.30;0.30;;;;;;;1.57;65.55;101423.38;5094434;28;20056;-71
2023/02/05 08:35:16;;;;;;;0.63;0.63;;;;;;;1.51;64.99;101412.06;5093167;28;20390;-69
2023/02/05 08:37:44;;;;;;;0.50;0.50;;;;;;;1.64;64.67;101412.94;5093663;28;20119;-70
2023/02/05 08:40:15;;;;;;;0.57;0.57;;;;;;;1.70;63.89;101407.41;5094222;28;20044;-70
2023/02/05 08:42:44;;;;;;;0.40;0.40;;;;;;;1.61;63.13;101419.44;5093986;28;20097;-71
2023/02/05 08:45:13;;;;;;;0.60;0.60;;;;;;;1.63;62.77;101412.84;5094132;28;20071;-70
2023/02/05 08:47:41;;;;;;;0.40;0.40;;;;;;;1.58;62.21;101419.22;5094258;28;20047;-70
2023/02/05 08:50:11;;;;;;;0.47;0.47;;;;;;;1.54;61.95;101412.25;5094073;28;20126;-70
2023/02/05 08:52:39;;;;;;;0.40;0.40;;;;;;;1.50;62.14;101420.38;5093839;28;20127;-71
2023/02/05 08:55:08;;;;;;;0.60;0.60;;;;;;;1.67;62.09;101427.34;5093740;28;20044;-70
2023/02/05 08:57:39;;;;;;;0.53;0.53;;;;;;;1.70;61.00;101432.59;5094101;28;20036;-71
2023/02/05 09:00:09;;;;;;;0.50;0.50;;;;;;;1.77;61.02;101423.00;5093736;28;20299;-71
2023/02/05 09:02:38;;;;;;;1.50;1.40;;;;;;;1.75;60.27;101416.13;5093532;28;20043;-71
2023/02/05 09:05:07;;;;;;;0.60;0.60;;;;;;;1.75;60.24;101408.56;5093660;28;20044;-71
2023/02/05 09:07:39;;;;;;;0.40;0.40;;;;;;;1.65;60.10;101417.19;5093995;28;20280;-71
2023/02/05 09:10:09;;;;;;;0.50;0.50;;;;;;;1.56;59.28;101423.31;5094005;28;20072;-70
2023/02/05 09:12:39;;;;;;;0.45;0.45;;;;;;;1.67;59.83;101427.34;5093617;28;20493;-71
2023/02/05 09:15:09;;;;;;;0.47;0.47;;;;;;;1.73;60.03;101415.13;5093594;28;20093;-70
2023/02/05 09:17:38;;;;;;;1.15;1.05;;;;;;;1.63;59.32;101418.72;5093638;28;20490;-71
2023/02/05 09:20:08;;;;;;;0.50;0.50;;;;;;;1.71;58.97;101422.59;5093743;28;20454;-71
2023/02/05 09:22:37;;;;;;;0.47;0.47;;;;;;;1.52;59.04;101418.81;5094154;28;20446;-70
2023/02/05 09:25:07;;;;;;;0.50;0.50;;;;;;;1.54;59.02;101417.28;5093430;28;20105;-70
2023/02/05 09:27:35;;;;;;;;;;;;;;;1.76;58.45;101421.25;5093803;28;20044;-70
2023/02/05 09:30:06;;;;;;;1.02;1.00;;;;;;;1.72;58.10;101423.47;5093365;28;20027;-68
2023/02/05 09:32:35;;;;;;;0.30;0.30;;;;;;;1.59;57.53;101423.47;5093464;28;20067;-70
2023/02/05 09:35:04;;;;;;;0.50;0.50;;;;;;;1.66;58.20;101433.13;5093413;28;20067;-71
2023/02/05 09:37:33;;;;;;;0.40;0.40;;;;;;;1.73;57.33;101425.19;5093419;28;20036;-70
2023/02/05 09:40:01;;;;;;;1.23;1.23;;;;;;;1.88;57.27;101433.72;5093303;28;20039;-70
2023/02/05 09:42:59;;;;;;;0.60;0.60;;;;;;;1.79;56.37;101430.63;5093202;28;20105;-70
2023/02/05 09:45:48;;;;;;;0.57;0.57;;;;;;;1.64;55.78;101432.19;5093535;28;20048;-70
2023/02/05 09:48:48;;;;;;;0.50;0.50;;;;;;;1.52;55.84;101428.88;5093337;28;20048;-69
2023/02/05 09:51:21;;;;;;;0.85;0.85;;;;;;;1.57;56.07;101417.47;5096766;28;20062;-68
2023/02/05 09:53:57;;;;;;;0.50;0.50;;;;;;;1.64;55.11;101414.56;5097450;28;20398;-70
2023/02/05 09:56:28;;;;;;;1.35;0.98;;;;;;;1.58;55.25;101409.16;5097196;28;20138;-69
2023/02/05 09:58:58;;;;;;;3.40;1.75;;;;;;;1.63;55.73;101413.69;5097038;28;20089;-69
2023/02/05 10:01:41;;;;;;;0.40;0.40;;;;;;;1.56;55.06;101406.53;5097058;28;20040;-70
2023/02/05 10:04:11;;;;;;;0.52;0.52;;;;;;;1.56;55.26;101410.72;5096901;28;20048;-69
2023/02/05 10:07:05;;;;;;;0.57;0.57;;;;;;;1.48;54.76;101406.84;5096929;28;20144;-68
2023/02/05 10:09:48;;;;;;;0.60;0.60;;;;;;;1.60;54.36;101412.63;5091699;28;20074;-70
2023/02/05 10:12:32;;;;;;;0.40;0.40;;;;;;;1.52;54.59;101411.28;5096824;28;20044;-70
2023/02/05 10:15:27;;;;;;;3.03;1.20;;;;;;;1.59;54.62;101406.72;5097089;28;20071;-69
2023/02/05 10:18:09;;;;;;;0.40;0.40;;;;;;;1.76;54.18;101412.81;5096572;28;20055;-70
2023/02/05 10:20:54;;;;;;;1.23;1.13;;;;;;;1.76;53.69;101407.78;5096533;28;20551;-70
2023/02/05 10:23:43;;;;;;;1.08;0.80;;;;;;;1.84;53.83;101404.97;5096945;28;20079;-70
2023/02/05 10:26:13;;;;;;;0.32;0.32;;;;;;;1.88;54.03;101398.47;5096801;28;20486;-69
2023/02/05 10:29:09;;;;;;;0.43;0.43;;;;;;;2.12;53.83;101386.47;5096511;28;20075;-69
2023/02/05 10:31:43;;;;;;;0.30;0.30;;;;;;;2.07;52.73;101393.78;5091191;28;20094;-70
2023/02/05 10:34:32;;;;;;;1.75;1.65;;;;;;;1.89;52.92;101382.59;5095402;28;20052;-68
2023/02/05 10:37:05;;;;;;;0.52;0.52;;;;;;;1.83;53.62;101392.28;5096713;28;20067;-69
2023/02/05 10:39:35;;;;;;;0.40;0.40;;;;;;;1.93;52.61;101384.50;5096498;28;20050;-71
2023/02/05 10:42:14;;;;;;;1.07;1.07;;;;;;;2.00;53.30;101381.59;5095067;28;20123;-69
2023/02/05 10:44:46;;;;;;;0.30;0.30;;;;;;;2.21;52.95;101372.78;5096752;28;20117;-71
2023/02/05 10:47:23;;;;;;;0.60;0.60;;;;;;;2.04;52.73;101343.22;5095941;28;20040;-70
2023/02/05 10:49:58;;;;;;;0.50;0.50;;;;;;;2.00;52.69;101371.50;5096434;28;20071;-69
2023/02/05 10:52:27;;;;;;;1.15;1.13;;;;;;;2.00;52.25;101371.50;5096465;28;20040;-69
2023/02/05 10:54:56;;;;;;;0.75;0.75;;;;;;;2.10;52.27;101362.88;5096242;28;20440;-69
2023/02/05 10:57:28;;;;;;;0.40;0.40;;;;;;;2.08;52.30;101364.44;5095988;28;20036;-69
2023/02/05 11:00:02;;;;;;;0.47;0.47;;;;;;;2.13;52.27;101358.91;5095820;28;20360;-67
2023/02/05 11:02:37;;;;;;;1.48;1.27;;;;;;;2.10;51.67;101352.78;5095614;28;20058;-70
2023/02/05 11:05:21;;;;;;;0.50;0.50;;;;;;;2.12;52.01;101361.31;5096346;28;20463;-68
2023/02/05 11:07:52;;;;;;;0.30;0.30;;;;;;;2.27;51.43;101358.06;5095947;28;20040;-68
2023/02/05 11:10:23;;;;;;;16.55;2.92;;;;;;;2.41;51.70;101347.16;5095769;28;20573;-71
2023/02/05 11:12:55;;;;;;;0.90;0.90;;;;;;;2.63;51.25;101360.22;5095595;28;20048;-71
2023/02/05 11:15:26;;;;;;;1.25;1.15;;;;;;;2.41;50.50;101349.66;5095646;28;20052;-69
2023/02/05 11:17:58;;;;;;;0.30;0.30;;;;;;;2.31;51.78;101349.91;5095827;28;20052;-70
2023/02/05 11:20:32;;;;;;;1.70;1.60;;;;;;;2.45;52.13;101351.56;5095789;28;20131;-67
2023/02/05 11:23:16;;;;;;;0.40;0.40;;;;;;;2.39;50.88;101358.78;5095493;28;20044;-69
2023/02/05 11:25:53;;;;;;;0.47;0.47;;;;;;;2.27;51.39;101357.19;5095408;28;20044;-68
2023/02/05 11:28:26;;;;;;;0.63;0.63;;;;;;;2.14;50.97;101355.59;5095248;28;20063;-68
2023/02/05 11:30:56;;;;;;;0.50;0.50;;;;;;;2.51;51.71;101344.38;5095311;28;20040;-69
2023/02/05 11:33:30;;;;;;;0.95;0.95;;;;;;;2.76;52.04;101336.56;5095702;28;20401;-68
2023/02/05 11:36:07;;;;;;;1.45;1.35;;;;;;;2.94;51.32;101342.66;5095210;28;20048;-70
2023/02/05 11:38:44;;;;;;;1.13;1.02;;;;;;;2.99;50.79;101332.81;5095371;28;20132;-68
2023/02/05 11:41:27;;;;;;;1.23;0.85;;;;;;;2.68;50.86;101328.59;5095760;28;20044;-68
2023/02/05 11:43:58;;;;;;;0.38;0.38;;;;;;;2.62;50.88;101323.19;5094067;28;20051;-69
2023/02/05 11:46:32;;;;;;;0.30;0.30;;;;;;;2.49;50.99;101324.91;5094944;28;20052;-69
2023/02/05 11:49:03;;;;;;;0.50;0.50;;;;;;;2.64;50.82;101326.66;5094986;28;20052;-69
2023/02/05 11:51:54;;;;;;;0.50;0.50;;;;;;;2.77;50.28;101327.34;5094895;28;20056;-68
2023/02/05 11:54:28;;;;;;;0.80;0.77;;;;;;;2.82;50.54;101331.88;5095209;28;20513;-69
2023/02/05 11:57:06;;;;;;;0.40;0.40;;;;;;;3.22;51.02;101329.91;5095078;28;20044;-69
2023/02/05 11:59:36;;;;;;;0.55;0.55;;;;;;;3.28;50.11;101325.22;5094724;28;20048;-69